createdAt,value
2018-09-30T00:01:00.660Z,10.42
2018-09-30T00:03:30.009Z,10.39
2018-09-30T00:05:59.492Z,10.37
2018-09-30T00:08:28.716Z,10.33
2018-09-30T00:10:58.030Z,10.31
2018-09-30T00:13:28.111Z,10.27
2018-09-30T00:15:58.051Z,10.25
2018-09-30T00:18:28.303Z,10.22
2018-09-30T00:20:58.297Z,10.23
2018-09-30T00:23:27.338Z,10.24
2018-09-30T00:26:01.817Z,10.24
2018-09-30T00:28:30.989Z,10.23
2018-09-30T00:31:00.170Z,10.21
2018-09-30T00:33:29.691Z,10.20
2018-09-30T00:35:58.830Z,10.16
2018-09-30T00:38:28.021Z,10.12
2018-09-30T00:40:57.224Z,10.11
2018-09-30T00:43:26.388Z,10.10
2018-09-30T00:45:55.503Z,10.09
2018-09-30T00:48:24.867Z,10.08
2018-09-30T00:50:53.908Z,10.06
2018-09-30T00:53:22.973Z,10.00
2018-09-30T00:55:52.080Z,9.99
2018-09-30T00:58:21.332Z,9.97
2018-09-30T01:00:51.722Z,9.95
2018-09-30T01:03:20.834Z,9.94
2018-09-30T01:05:49.865Z,9.94
2018-09-30T01:08:18.923Z,9.93
2018-09-30T01:10:48.135Z,9.91
2018-09-30T01:13:17.357Z,9.91
2018-09-30T01:15:46.727Z,9.89
2018-09-30T01:18:15.875Z,9.86
2018-09-30T01:20:45.505Z,9.84
2018-09-30T01:23:14.815Z,9.82
2018-09-30T01:25:43.996Z,9.81
2018-09-30T01:28:13.241Z,9.78
2018-09-30T01:30:42.647Z,9.75
2018-09-30T01:33:12.711Z,9.71
2018-09-30T01:35:44.564Z,9.65
2018-09-30T01:38:14.044Z,9.65
2018-09-30T01:40:43.345Z,9.62
2018-09-30T01:43:12.543Z,9.58
2018-09-30T01:45:41.794Z,9.57
2018-09-30T01:48:11.106Z,9.54
2018-09-30T01:50:40.200Z,9.49
2018-09-30T01:53:09.596Z,9.45
2018-09-30T01:55:38.828Z,9.41
2018-09-30T01:58:07.876Z,9.39
2018-09-30T02:00:37.053Z,9.41
2018-09-30T02:03:06.387Z,9.39
2018-09-30T02:05:36.040Z,9.38
2018-09-30T02:08:05.284Z,9.37
2018-09-30T02:10:34.425Z,9.37
2018-09-30T02:13:03.503Z,9.36
2018-09-30T02:15:32.564Z,9.34
2018-09-30T02:18:01.791Z,9.29
2018-09-30T02:20:31.192Z,9.26
2018-09-30T02:23:00.283Z,9.22
2018-09-30T02:25:29.448Z,9.15
2018-09-30T02:27:58.730Z,9.12
2018-09-30T02:30:27.932Z,9.08
2018-09-30T02:32:57.378Z,9.05
2018-09-30T02:35:27.487Z,9.02
2018-09-30T02:37:57.530Z,8.98
2018-09-30T02:40:27.612Z,8.97
2018-09-30T02:42:56.920Z,8.96
2018-09-30T02:45:26.065Z,8.96
2018-09-30T02:47:55.088Z,8.94
2018-09-30T02:50:24.325Z,8.93
2018-09-30T02:52:53.387Z,8.93
2018-09-30T02:55:22.431Z,8.87
2018-09-30T02:57:51.528Z,8.86
2018-09-30T03:00:20.531Z,8.84
2018-09-30T03:02:49.687Z,8.84
2018-09-30T03:05:19.153Z,8.83
2018-09-30T03:07:53.732Z,8.83
2018-09-30T03:10:22.811Z,8.84
2018-09-30T03:12:51.959Z,8.85
2018-09-30T03:15:21.216Z,8.87
2018-09-30T03:17:50.314Z,8.91
2018-09-30T03:20:20.174Z,8.92
2018-09-30T03:22:49.267Z,8.90
2018-09-30T03:25:18.708Z,8.89
2018-09-30T03:27:48.940Z,8.90
2018-09-30T03:30:18.126Z,8.92
2018-09-30T03:32:47.356Z,8.92
2018-09-30T03:35:16.707Z,8.92
2018-09-30T03:37:45.882Z,8.94
2018-09-30T03:40:15.139Z,8.95
2018-09-30T03:42:44.385Z,8.96
2018-09-30T03:45:13.761Z,8.98
2018-09-30T03:47:42.958Z,8.98
2018-09-30T03:50:12.545Z,8.98
2018-09-30T03:52:42.580Z,8.98
2018-09-30T03:55:11.955Z,9.00
2018-09-30T03:57:41.275Z,9.01
2018-09-30T04:00:10.477Z,9.01
2018-09-30T04:02:39.706Z,9.04
2018-09-30T04:05:08.842Z,9.06
2018-09-30T04:07:37.946Z,9.08
2018-09-30T04:10:07.189Z,9.09
2018-09-30T04:12:36.192Z,9.09
2018-09-30T04:15:05.294Z,9.10
2018-09-30T04:17:34.501Z,9.10
2018-09-30T04:20:03.559Z,9.09
2018-09-30T04:22:32.668Z,9.09
2018-09-30T04:25:01.820Z,9.06
2018-09-30T04:27:31.633Z,9.05
2018-09-30T04:30:00.855Z,9.04
2018-09-30T04:32:30.079Z,9.04
2018-09-30T04:34:59.370Z,9.03
2018-09-30T04:37:28.680Z,9.02
2018-09-30T04:39:58.016Z,8.99
2018-09-30T04:42:27.299Z,9.01
2018-09-30T04:44:56.834Z,8.99
2018-09-30T04:47:26.417Z,9.01
2018-09-30T04:49:55.743Z,9.04
2018-09-30T04:52:24.956Z,9.06
2018-09-30T04:54:54.738Z,9.04
2018-09-30T04:57:24.232Z,9.03
2018-09-30T04:59:53.623Z,9.01
2018-09-30T05:02:22.819Z,8.99
2018-09-30T05:04:51.961Z,8.97
2018-09-30T05:07:21.220Z,8.97
2018-09-30T05:09:50.664Z,8.93
2018-09-30T05:12:19.781Z,8.94
2018-09-30T05:14:48.861Z,8.91
2018-09-30T05:17:18.028Z,8.90
2018-09-30T05:19:47.257Z,8.89
2018-09-30T05:22:16.531Z,8.86
2018-09-30T05:24:45.805Z,8.83
2018-09-30T05:27:15.050Z,8.82
2018-09-30T05:29:44.368Z,8.80
2018-09-30T05:32:13.848Z,8.78
2018-09-30T05:34:43.239Z,8.74
2018-09-30T05:37:12.441Z,8.72
2018-09-30T05:39:41.882Z,8.73
2018-09-30T05:42:11.348Z,8.73
2018-09-30T05:44:42.708Z,8.76
2018-09-30T05:47:12.296Z,8.76
2018-09-30T05:49:41.597Z,8.78
2018-09-30T05:52:10.786Z,8.85
2018-09-30T05:54:40.672Z,9.01
2018-09-30T05:57:10.149Z,9.23
2018-09-30T05:59:39.339Z,9.54
2018-09-30T06:02:08.655Z,9.85
2018-09-30T06:04:37.892Z,10.14
2018-09-30T06:07:07.177Z,10.47
2018-09-30T06:09:36.709Z,10.82
2018-09-30T06:12:05.938Z,11.14
2018-09-30T06:14:35.139Z,11.48
2018-09-30T06:17:04.334Z,11.84
2018-09-30T06:19:33.741Z,12.25
2018-09-30T06:22:03.924Z,12.66
2018-09-30T06:24:33.330Z,13.07
2018-09-30T06:27:02.621Z,13.47
2018-09-30T06:29:32.433Z,13.86
2018-09-30T06:32:01.715Z,14.20
2018-09-30T06:34:30.907Z,14.57
2018-09-30T06:37:00.111Z,15.00
2018-09-30T06:39:29.390Z,15.46
2018-09-30T06:41:58.661Z,15.96
2018-09-30T06:44:27.996Z,16.42
2018-09-30T06:46:57.489Z,16.89
2018-09-30T06:49:26.848Z,17.32
2018-09-30T06:51:56.040Z,17.74
2018-09-30T06:54:25.750Z,18.14
2018-09-30T06:56:55.214Z,18.47
2018-09-30T06:59:24.564Z,18.79
2018-09-30T07:01:53.660Z,19.05
2018-09-30T07:04:23.134Z,19.25
2018-09-30T07:06:52.438Z,19.53
2018-09-30T07:09:21.600Z,19.80
2018-09-30T07:11:51.046Z,20.04
2018-09-30T07:14:20.349Z,20.34
2018-09-30T07:16:49.615Z,20.67
2018-09-30T07:19:18.873Z,21.02
2018-09-30T07:21:48.147Z,21.44
2018-09-30T07:24:17.571Z,21.95
2018-09-30T07:26:46.887Z,22.58
2018-09-30T07:29:17.479Z,23.11
2018-09-30T07:31:47.235Z,23.63
2018-09-30T07:34:16.530Z,24.22
2018-09-30T07:36:45.806Z,24.74
2018-09-30T07:39:15.322Z,25.19
2018-09-30T07:41:44.896Z,25.45
2018-09-30T07:44:14.824Z,25.66
2018-09-30T07:46:44.187Z,25.94
2018-09-30T07:49:14.016Z,26.28
2018-09-30T07:51:43.518Z,26.64
2018-09-30T07:54:13.043Z,27.01
2018-09-30T07:56:43.789Z,27.36
2018-09-30T07:59:13.471Z,27.63
2018-09-30T08:01:43.097Z,27.83
2018-09-30T08:04:13.043Z,28.10
2018-09-30T08:06:42.477Z,28.31
2018-09-30T08:09:12.320Z,28.46
2018-09-30T08:11:42.567Z,28.62
2018-09-30T08:14:12.621Z,28.71
2018-09-30T08:16:42.110Z,28.75
2018-09-30T08:19:11.617Z,28.79
2018-09-30T08:21:42.473Z,28.93
2018-09-30T08:24:12.424Z,29.11
2018-09-30T08:26:42.668Z,29.54
2018-09-30T08:29:13.190Z,30.02
2018-09-30T08:31:44.223Z,30.66
2018-09-30T08:34:14.549Z,31.36
2018-09-30T08:36:43.988Z,31.97
2018-09-30T08:39:13.880Z,32.51
2018-09-30T08:41:44.639Z,33.05
2018-09-30T08:44:14.825Z,33.41
2018-09-30T08:46:45.892Z,33.41
2018-09-30T08:49:15.806Z,33.53
2018-09-30T08:51:45.989Z,33.79
2018-09-30T08:54:16.185Z,34.11
2018-09-30T08:56:48.720Z,34.38
2018-09-30T08:59:18.976Z,34.38
2018-09-30T09:01:49.304Z,34.14
2018-09-30T09:04:22.096Z,33.78
2018-09-30T09:06:52.523Z,33.38
2018-09-30T09:09:28.544Z,33.16
2018-09-30T09:12:01.914Z,33.16
2018-09-30T09:14:33.658Z,33.24
2018-09-30T09:17:12.000Z,33.42
2018-09-30T09:19:42.705Z,33.53
2018-09-30T09:22:15.423Z,33.75
2018-09-30T09:24:45.449Z,33.99
2018-09-30T09:27:15.539Z,34.16
2018-09-30T09:29:45.480Z,34.18
2018-09-30T09:32:16.894Z,34.09
2018-09-30T09:34:46.883Z,34.01
2018-09-30T09:37:18.898Z,33.99
2018-09-30T09:39:51.816Z,33.94
2018-09-30T09:42:23.524Z,33.79
2018-09-30T09:45:00.423Z,33.56
2018-09-30T09:47:33.934Z,33.49
2018-09-30T09:50:09.909Z,33.47
2018-09-30T09:52:39.965Z,33.48
2018-09-30T09:55:09.624Z,33.39
2018-09-30T09:57:39.851Z,33.35
2018-09-30T10:00:09.891Z,33.33
2018-09-30T10:02:39.883Z,33.37
2018-09-30T10:05:09.787Z,33.40
2018-09-30T10:07:39.932Z,33.32
2018-09-30T10:10:10.168Z,33.30
2018-09-30T10:12:39.874Z,33.34
2018-09-30T10:15:10.692Z,33.25
2018-09-30T10:17:40.710Z,33.14
2018-09-30T10:20:10.435Z,32.93
2018-09-30T10:22:41.053Z,32.85
2018-09-30T10:25:11.320Z,32.84
2018-09-30T10:27:42.128Z,32.78
2018-09-30T10:30:11.989Z,32.58
2018-09-30T10:32:41.740Z,32.12
2018-09-30T10:35:12.300Z,31.59
2018-09-30T10:37:43.687Z,31.09
2018-09-30T10:40:16.975Z,30.67
2018-09-30T10:45:48.159Z,30.01
2018-09-30T10:48:18.507Z,29.82
2018-09-30T10:50:47.936Z,29.47
2018-09-30T10:53:18.879Z,29.06
2018-09-30T10:55:51.205Z,28.71
2018-09-30T10:58:21.919Z,28.52
2018-09-30T11:00:52.093Z,28.44
2018-09-30T11:03:22.700Z,28.35
2018-09-30T11:05:52.110Z,28.13
2018-09-30T11:08:22.923Z,27.76
2018-09-30T11:10:52.752Z,27.36
2018-09-30T11:13:22.888Z,26.97
2018-09-30T11:15:53.162Z,26.73
2018-09-30T11:18:23.217Z,26.55
2018-09-30T11:20:52.721Z,26.43
2018-09-30T11:23:22.637Z,26.26
2018-09-30T11:25:52.168Z,26.23
2018-09-30T11:28:23.095Z,26.27
2018-09-30T11:30:53.166Z,26.37
2018-09-30T11:33:23.322Z,26.33
2018-09-30T11:35:52.899Z,26.23
2018-09-30T11:38:22.707Z,26.10
2018-09-30T11:40:52.347Z,25.80
2018-09-30T11:43:22.330Z,25.53
2018-09-30T11:45:52.398Z,25.30
2018-09-30T11:48:23.497Z,25.15
2018-09-30T11:50:53.383Z,25.11
2018-09-30T11:53:23.950Z,25.15
2018-09-30T11:55:53.323Z,25.16
2018-09-30T11:58:23.384Z,25.11
2018-09-30T12:00:53.515Z,24.98
2018-09-30T12:03:22.936Z,24.91
2018-09-30T12:05:53.070Z,24.82
2018-09-30T12:08:23.600Z,24.72
2018-09-30T12:10:53.409Z,24.66
2018-09-30T12:13:22.960Z,24.63
2018-09-30T12:15:52.391Z,24.63
2018-09-30T12:18:22.374Z,24.61
2018-09-30T12:20:52.046Z,24.57
2018-09-30T12:23:21.735Z,24.52
2018-09-30T12:25:51.575Z,24.46
2018-09-30T12:28:22.124Z,24.36
2018-09-30T12:30:52.350Z,24.24
2018-09-30T12:33:21.729Z,24.16
2018-09-30T12:35:51.667Z,24.14
2018-09-30T12:38:21.359Z,24.13
2018-09-30T12:40:51.091Z,24.04
2018-09-30T12:43:21.145Z,23.96
2018-09-30T12:45:51.436Z,23.87
2018-09-30T12:48:21.147Z,23.87
2018-09-30T12:50:50.602Z,23.91
2018-09-30T12:53:20.045Z,23.95
2018-09-30T12:55:49.678Z,23.97
2018-09-30T12:58:19.357Z,24.00
2018-09-30T13:00:49.160Z,24.01
2018-09-30T13:03:18.792Z,23.97
2018-09-30T13:05:48.158Z,23.89
2018-09-30T13:09:23.279Z,23.81
2018-09-30T13:11:52.559Z,23.66
2018-09-30T13:14:21.787Z,23.66
2018-09-30T13:16:51.074Z,23.67
2018-09-30T13:19:20.595Z,23.68
2018-09-30T13:21:50.194Z,23.68
2018-09-30T13:24:19.620Z,23.69
2018-09-30T13:26:49.188Z,23.69
2018-09-30T13:29:18.807Z,23.69
2018-09-30T13:31:48.417Z,23.67
2018-09-30T13:34:17.910Z,23.66
2018-09-30T13:36:47.486Z,23.63
2018-09-30T13:39:16.997Z,23.59
2018-09-30T13:41:46.722Z,23.54
2018-09-30T13:44:16.688Z,23.48
2018-09-30T13:46:46.560Z,23.37
2018-09-30T13:49:15.872Z,23.30
2018-09-30T13:51:45.521Z,23.25
2018-09-30T13:54:14.866Z,23.19
2018-09-30T13:56:44.761Z,23.13
2018-09-30T13:59:14.472Z,23.07
2018-09-30T14:01:44.839Z,22.99
2018-09-30T14:04:14.518Z,22.92
2018-09-30T14:06:43.981Z,22.87
2018-09-30T14:09:13.745Z,22.79
2018-09-30T14:16:48.974Z,22.34
2018-09-30T14:19:18.582Z,22.28
2018-09-30T14:21:48.978Z,22.21
2018-09-30T14:24:18.843Z,22.14
2018-09-30T14:26:49.213Z,22.10
2018-09-30T14:29:18.456Z,22.07
2018-09-30T14:31:48.132Z,22.02
2018-09-30T14:34:18.169Z,21.98
2018-09-30T14:36:47.899Z,21.94
2018-09-30T14:39:17.267Z,21.88
2018-09-30T14:41:47.082Z,21.83
2018-09-30T14:44:16.599Z,21.78
2018-09-30T14:46:46.269Z,21.73
2018-09-30T14:49:16.249Z,21.65
2018-09-30T14:51:45.917Z,21.57
2018-09-30T14:54:15.370Z,21.50
2018-09-30T14:56:45.418Z,21.42
2018-09-30T14:59:14.804Z,21.34
2018-09-30T15:01:44.872Z,21.30
2018-09-30T15:04:14.377Z,21.24
2018-09-30T15:06:43.953Z,21.19
2018-09-30T15:09:13.551Z,21.15
2018-09-30T15:11:44.258Z,21.11
2018-09-30T15:14:14.704Z,21.07
2018-09-30T15:16:46.558Z,21.03
2018-09-30T15:19:17.657Z,20.97
2018-09-30T15:21:47.038Z,20.92
2018-09-30T15:24:17.358Z,20.88
2018-09-30T15:26:47.530Z,20.84
2018-09-30T15:29:17.154Z,20.79
2018-09-30T15:31:46.873Z,20.76
2018-09-30T15:34:16.574Z,20.70
2018-09-30T15:36:46.255Z,20.66
2018-09-30T15:39:15.726Z,20.62
2018-09-30T15:41:45.444Z,20.55
2018-09-30T15:44:15.079Z,20.50
2018-09-30T15:46:44.596Z,20.47
2018-09-30T15:49:13.795Z,20.42
2018-09-30T15:51:43.349Z,20.37
2018-09-30T15:54:12.810Z,20.32
2018-09-30T15:56:42.460Z,20.27
2018-09-30T15:59:12.151Z,20.23
2018-09-30T16:01:41.528Z,20.18
2018-09-30T16:04:11.156Z,20.15
2018-09-30T16:06:41.479Z,20.09
2018-09-30T16:09:10.883Z,20.07
2018-09-30T16:11:40.595Z,20.01
2018-09-30T16:14:10.267Z,19.96
2018-09-30T16:16:39.676Z,19.91
2018-09-30T16:19:10.225Z,19.85
2018-09-30T16:21:39.887Z,19.80
2018-09-30T16:24:11.333Z,19.74
2018-09-30T16:26:40.811Z,19.65
2018-09-30T16:29:10.500Z,19.58
2018-09-30T16:31:40.052Z,19.53
2018-09-30T16:34:09.520Z,19.46
2018-09-30T16:36:39.019Z,19.38
2018-09-30T16:39:09.657Z,19.28
2018-09-30T16:41:39.560Z,19.19
2018-09-30T16:44:10.020Z,19.11
2018-09-30T16:46:39.569Z,18.99
2018-09-30T16:49:09.001Z,18.89
2018-09-30T16:51:38.404Z,18.77
2018-09-30T16:54:07.832Z,18.67
2018-09-30T16:56:37.122Z,18.55
2018-09-30T16:59:06.580Z,18.44
2018-09-30T17:01:35.988Z,18.33
2018-09-30T17:04:05.331Z,18.21
2018-09-30T17:06:34.536Z,18.10
2018-09-30T17:09:05.850Z,18.00
2018-09-30T17:11:41.815Z,17.91
2018-09-30T17:14:11.267Z,17.78
2018-09-30T17:16:41.247Z,17.65
2018-09-30T17:19:11.013Z,17.54
2018-09-30T17:21:41.054Z,17.45
2018-09-30T17:24:11.969Z,17.37
2018-09-30T17:26:41.942Z,17.28
2018-09-30T17:29:13.190Z,17.18
2018-09-30T17:31:44.847Z,17.08
2018-09-30T17:34:15.785Z,16.99
2018-09-30T17:36:48.168Z,16.90
2018-09-30T17:39:19.264Z,16.82
2018-09-30T17:41:54.146Z,16.74
2018-09-30T17:44:28.463Z,16.68
2018-09-30T17:46:58.323Z,16.61
2018-09-30T17:49:28.219Z,16.55
2018-09-30T17:52:01.670Z,16.46
2018-09-30T17:54:31.062Z,16.41
2018-09-30T17:57:00.940Z,16.33
2018-09-30T17:59:31.623Z,16.28
2018-09-30T18:02:02.171Z,16.22
2018-09-30T18:04:32.848Z,16.19
2018-09-30T18:07:04.103Z,16.15
2018-09-30T18:09:36.508Z,16.13
2018-09-30T18:12:08.970Z,16.13
2018-09-30T18:14:38.555Z,16.11
2018-09-30T18:17:09.788Z,16.11
2018-09-30T18:19:46.653Z,16.09
2018-09-30T18:22:16.856Z,16.11
2018-09-30T18:24:48.162Z,16.10
2018-09-30T18:27:25.100Z,16.12
2018-09-30T18:29:54.601Z,16.12
2018-09-30T18:32:24.254Z,16.12
2018-09-30T18:34:55.329Z,16.15
2018-09-30T18:37:26.716Z,16.14
2018-09-30T18:39:57.208Z,16.14
2018-09-30T18:42:26.705Z,16.15
2018-09-30T18:44:57.356Z,16.13
2018-09-30T18:47:27.394Z,16.13
2018-09-30T18:49:56.955Z,16.11
2018-09-30T18:52:26.716Z,16.09
2018-09-30T18:54:57.426Z,16.06
2018-09-30T18:57:26.984Z,16.04
2018-09-30T18:59:56.743Z,16.01
2018-09-30T19:02:25.980Z,15.97
2018-09-30T19:04:55.449Z,15.96
2018-09-30T19:07:26.639Z,15.93
2018-09-30T19:09:58.664Z,15.91
2018-09-30T19:12:29.389Z,15.89
2018-09-30T19:15:01.075Z,15.91
2018-09-30T19:17:31.035Z,15.90
2018-09-30T19:20:01.026Z,15.92
2018-09-30T19:22:31.308Z,15.94
2018-09-30T19:25:04.161Z,15.98
2018-09-30T19:27:33.776Z,16.02
2018-09-30T19:30:06.682Z,16.06
2018-09-30T19:32:42.952Z,16.11
2018-09-30T19:35:26.900Z,16.15
2018-09-30T19:37:57.742Z,16.21
2018-09-30T19:40:31.325Z,16.25
2018-09-30T19:43:06.668Z,16.29
2018-09-30T19:45:39.533Z,16.33
2018-09-30T19:48:14.668Z,16.36
2018-09-30T19:50:49.456Z,16.41
2018-09-30T19:53:20.977Z,16.43
2018-09-30T19:55:59.249Z,16.43
2018-09-30T19:58:41.182Z,16.44
2018-09-30T20:01:15.887Z,16.39
2018-09-30T20:03:53.707Z,16.38
2018-09-30T20:06:29.959Z,16.38
2018-09-30T20:09:09.423Z,16.36
2018-09-30T20:11:48.773Z,16.34
2018-09-30T20:14:21.221Z,16.29
2018-09-30T20:16:54.103Z,16.28
2018-09-30T20:19:29.978Z,16.26
2018-09-30T20:22:12.953Z,16.24
2018-09-30T20:24:48.838Z,16.20
2018-09-30T20:27:27.335Z,16.18
2018-09-30T20:30:05.209Z,16.15
2018-09-30T20:32:38.341Z,16.14
2018-09-30T20:35:14.991Z,16.11
2018-09-30T20:37:49.277Z,16.09
2018-09-30T20:40:25.637Z,16.09
2018-09-30T20:42:56.145Z,16.07
2018-09-30T20:45:26.254Z,16.05
2018-09-30T20:47:56.418Z,16.04
2018-09-30T20:50:27.103Z,16.01
2018-09-30T20:53:01.225Z,15.98
2018-09-30T20:55:38.444Z,15.95
2018-09-30T20:58:08.462Z,15.92
2018-09-30T21:00:38.271Z,15.90
2018-09-30T21:03:08.117Z,15.89
2018-09-30T21:06:04.252Z,15.84
2018-09-30T21:08:35.592Z,15.81
2018-09-30T21:11:05.537Z,15.78
2018-09-30T21:13:40.022Z,15.75
2018-09-30T21:16:14.684Z,15.75
2018-09-30T21:18:46.237Z,15.74
2018-09-30T21:21:19.408Z,15.74
2018-09-30T21:23:48.762Z,15.72
2018-09-30T21:26:18.881Z,15.73
2018-09-30T21:28:48.236Z,15.71
2018-09-30T21:31:18.443Z,15.72
2018-09-30T21:33:48.870Z,15.71
2018-09-30T21:36:18.058Z,15.69
2018-09-30T21:38:48.272Z,15.68
2018-09-30T21:41:18.431Z,15.68
2018-09-30T21:43:48.230Z,15.65
2018-09-30T21:46:18.503Z,15.64
2018-09-30T21:48:53.886Z,15.63
2018-09-30T21:51:23.405Z,15.63
2018-09-30T21:53:54.484Z,15.62
2018-09-30T21:56:26.222Z,15.61
2018-09-30T21:58:57.286Z,15.61
2018-09-30T22:01:29.915Z,15.60
2018-09-30T22:03:59.340Z,15.58
2018-09-30T22:06:35.530Z,15.56
2018-09-30T22:09:07.740Z,15.54
2018-09-30T22:11:38.739Z,15.51
2018-09-30T22:14:13.355Z,15.48
2018-09-30T22:16:46.765Z,15.45
2018-09-30T22:19:16.885Z,15.42
2018-09-30T22:21:49.629Z,15.38
2018-09-30T22:24:19.136Z,15.37
2018-09-30T22:26:52.029Z,15.34
2018-09-30T22:29:25.519Z,15.33
2018-09-30T22:31:56.953Z,15.31
2018-09-30T22:34:29.070Z,15.28
2018-09-30T22:37:00.193Z,15.26
2018-09-30T22:39:31.408Z,15.23
2018-09-30T22:42:03.248Z,15.18
2018-09-30T22:44:33.377Z,15.14
2018-09-30T22:47:04.723Z,15.12
2018-09-30T22:49:35.623Z,15.09
2018-09-30T22:52:08.801Z,15.05
2018-09-30T22:54:38.352Z,15.02
2018-09-30T22:57:12.046Z,15.00
2018-09-30T22:59:41.197Z,14.98
2018-09-30T23:02:10.498Z,14.96
2018-09-30T23:04:39.597Z,14.93
2018-09-30T23:07:09.101Z,14.92
2018-09-30T23:09:39.160Z,14.93
2018-09-30T23:12:08.230Z,14.93
2018-09-30T23:14:37.299Z,14.93
2018-09-30T23:17:07.394Z,14.94
2018-09-30T23:19:36.696Z,14.96
2018-09-30T23:22:05.771Z,14.97
2018-09-30T23:24:35.160Z,14.99
2018-09-30T23:27:04.248Z,15.01
2018-09-30T23:29:33.449Z,15.02
2018-09-30T23:32:02.687Z,15.01
2018-09-30T23:34:31.763Z,15.04
2018-09-30T23:37:00.862Z,15.07
2018-09-30T23:39:29.946Z,15.11
2018-09-30T23:41:59.109Z,15.16
2018-09-30T23:44:28.291Z,15.19
2018-09-30T23:46:57.380Z,15.26
2018-09-30T23:49:26.396Z,15.32
2018-09-30T23:51:55.682Z,15.37
2018-09-30T23:54:24.777Z,15.43
2018-09-30T23:56:53.840Z,15.48
2018-09-30T23:59:22.853Z,15.53
